createdAt,value
2023-05-18T00:01:44.216Z,102871.56
2023-05-18T00:06:48.770Z,102871.19
2023-05-18T00:11:51.855Z,102880.25
2023-05-18T00:16:55.103Z,102873.63
2023-05-18T00:21:59.630Z,102883.19
2023-05-18T00:27:02.835Z,102881.91
2023-05-18T00:32:06.571Z,102879.72
2023-05-18T00:37:11.054Z,102879.88
2023-05-18T00:42:14.224Z,102881.44
2023-05-18T00:47:18.565Z,102874.81
2023-05-18T00:52:23.561Z,102877.69
2023-05-18T00:57:27.030Z,102880.19
2023-05-18T01:02:30.693Z,102877.06
2023-05-18T01:07:35.597Z,102875.88
2023-05-18T01:12:44.453Z,102856.59
2023-05-18T01:18:00.762Z,102883.63
2023-05-18T01:23:31.003Z,102880.50
2023-05-18T01:28:35.789Z,102880.50
2023-05-18T01:33:38.931Z,102884.69
2023-05-18T01:38:44.300Z,102887.16
2023-05-18T01:43:54.093Z,102870.34
2023-05-18T01:49:02.545Z,102894.22
2023-05-18T01:54:09.037Z,102878.69
2023-05-18T01:59:16.164Z,102880.78
2023-05-18T02:04:19.333Z,102892.03
2023-05-18T02:09:22.622Z,102886.00
2023-05-18T02:14:28.317Z,102880.28
2023-05-18T02:19:32.076Z,102875.06
2023-05-18T02:24:35.179Z,102879.38
2023-05-18T02:29:41.161Z,102863.19
2023-05-18T02:34:46.502Z,102868.69
2023-05-18T02:39:49.717Z,102879.41
2023-05-18T02:44:54.152Z,102866.97
2023-05-18T02:49:57.336Z,102871.16
2023-05-18T02:55:00.616Z,102887.63
2023-05-18T03:00:23.599Z,102875.22
2023-05-18T03:05:27.543Z,102881.09
2023-05-18T03:10:30.666Z,102881.47
2023-05-18T03:15:37.671Z,102878.06
2023-05-18T03:20:40.966Z,102880.41
2023-05-18T03:25:44.905Z,102879.91
2023-05-18T03:30:52.058Z,102878.97
2023-05-18T03:35:55.599Z,102881.16
2023-05-18T03:40:58.944Z,102883.66
2023-05-18T03:46:03.537Z,102879.69
2023-05-18T03:51:06.882Z,102890.53
2023-05-18T03:56:10.740Z,102892.69
2023-05-18T04:01:15.223Z,102894.91
2023-05-18T04:06:18.818Z,102888.22
2023-05-18T04:11:22.602Z,102894.38
2023-05-18T04:16:27.583Z,102872.28
2023-05-18T04:21:36.297Z,102893.31
2023-05-18T04:26:39.393Z,102902.06
2023-05-18T04:31:45.022Z,102899.47
2023-05-18T04:36:48.855Z,102889.81
2023-05-18T04:41:58.092Z,102905.34
2023-05-18T04:47:05.010Z,102917.00
2023-05-18T04:52:11.611Z,102918.56
2023-05-18T04:57:14.739Z,102917.00
2023-05-18T05:02:19.578Z,102928.84
2023-05-18T05:07:23.768Z,102922.06
2023-05-18T05:12:26.990Z,102928.25
2023-05-18T05:17:31.299Z,102927.47
2023-05-18T05:22:34.451Z,102922.47
2023-05-18T05:27:38.568Z,102913.34
2023-05-18T05:32:43.169Z,102927.19
2023-05-18T05:37:46.924Z,102922.22
2023-05-18T05:42:51.152Z,102921.81
2023-05-18T05:47:55.955Z,102920.09
2023-05-18T05:53:00.735Z,102916.44
2023-05-18T05:58:06.160Z,102914.97
2023-05-18T06:03:10.881Z,102920.56
2023-05-18T06:08:18.112Z,102921.44
2023-05-18T06:13:23.316Z,102919.81
2023-05-18T06:18:32.066Z,102924.06
2023-05-18T06:23:41.682Z,102926.66
2023-05-18T06:28:58.165Z,102932.88
2023-05-18T06:34:14.204Z,102946.59
2023-05-18T06:39:17.385Z,102926.66
2023-05-18T06:44:20.852Z,102937.72
2023-05-18T06:49:42.797Z,102949.78
2023-05-18T06:54:46.245Z,102943.63
2023-05-18T06:59:53.672Z,102952.53
2023-05-18T07:04:58.813Z,102950.97
2023-05-18T07:10:02.031Z,102923.47
2023-05-18T07:15:06.005Z,102957.03
2023-05-18T07:20:11.909Z,102953.16
2023-05-18T07:25:14.992Z,102961.78
2023-05-18T07:30:18.359Z,102960.28
2023-05-18T07:35:22.920Z,102958.63
2023-05-18T07:40:26.163Z,102962.09
2023-05-18T07:45:29.573Z,102955.72
2023-05-18T07:50:34.807Z,102961.16
2023-05-18T07:55:37.857Z,102956.47
2023-05-18T08:00:40.835Z,102953.63
2023-05-18T08:05:45.425Z,102968.50
2023-05-18T08:10:48.540Z,102974.94
2023-05-18T08:16:02.908Z,102974.13
2023-05-18T08:21:10.058Z,102970.09
2023-05-18T08:26:14.138Z,102961.25
2023-05-18T08:31:17.431Z,102969.31
2023-05-18T08:36:22.042Z,102974.72
2023-05-18T08:41:31.158Z,102965.75
2023-05-18T08:46:36.629Z,102951.22
2023-05-18T08:51:43.630Z,102957.09
2023-05-18T08:56:48.446Z,102945.63
2023-05-18T09:01:52.811Z,102946.16
2023-05-18T09:07:00.276Z,102933.03
2023-05-18T09:12:04.593Z,102918.44
2023-05-18T09:17:10.101Z,102924.50
2023-05-18T09:22:15.520Z,102921.56
2023-05-18T09:27:19.968Z,102912.41
2023-05-18T09:32:23.478Z,102916.66
2023-05-18T09:37:28.902Z,102926.28
2023-05-18T09:42:37.895Z,102914.47
2023-05-18T09:47:40.970Z,102929.50
2023-05-18T09:52:46.213Z,102919.78
2023-05-18T09:57:50.876Z,102918.34
2023-05-18T10:02:54.182Z,102912.72
2023-05-18T10:07:59.094Z,102914.22
2023-05-18T10:13:02.894Z,102913.72
2023-05-18T10:18:08.943Z,102903.81
2023-05-18T10:23:13.849Z,102900.13
2023-05-18T10:28:24.487Z,102877.81
2023-05-18T10:33:30.137Z,102879.19
2023-05-18T10:38:39.058Z,102871.31
2023-05-18T10:43:42.861Z,102865.88
2023-05-18T10:48:51.503Z,102867.41
2023-05-18T10:54:00.574Z,102866.63
2023-05-18T10:59:04.895Z,102874.50
2023-05-18T11:04:08.232Z,102870.16
2023-05-18T11:09:23.947Z,102863.00
2023-05-18T11:14:28.454Z,102855.41
2023-05-18T11:19:32.638Z,102844.66
2023-05-18T11:24:38.068Z,102852.09
2023-05-18T11:29:45.073Z,102841.16
2023-05-18T11:34:52.377Z,102825.41
2023-05-18T11:40:00.656Z,102840.84
2023-05-18T11:45:08.208Z,102837.84
2023-05-18T11:50:12.970Z,102835.78
2023-05-18T11:55:20.262Z,102837.41
2023-05-18T12:00:26.072Z,102833.38
2023-05-18T12:05:32.441Z,102821.50
2023-05-18T12:10:37.894Z,102807.00
2023-05-18T12:15:42.291Z,102813.50
2023-05-18T12:20:46.957Z,102797.31
2023-05-18T12:25:51.598Z,102792.53
2023-05-18T12:30:58.756Z,102798.25
2023-05-18T12:36:04.720Z,102774.13
2023-05-18T12:41:09.647Z,102798.22
2023-05-18T12:46:12.787Z,102770.25
2023-05-18T12:51:19.950Z,102777.38
2023-05-18T12:56:25.490Z,102778.16
2023-05-18T13:01:29.229Z,102775.94
2023-05-18T13:06:32.514Z,102773.19
2023-05-18T13:11:37.221Z,102782.28
2023-05-18T13:16:42.819Z,102779.81
2023-05-18T13:21:49.059Z,102770.44
2023-05-18T13:26:53.794Z,102760.75
2023-05-18T13:31:57.056Z,102758.41
2023-05-18T13:42:07.570Z,102753.16
2023-05-18T13:47:10.888Z,102759.19
2023-05-18T13:52:13.932Z,102747.06
2023-05-18T13:57:18.337Z,102737.22
2023-05-18T14:02:21.437Z,102738.47
2023-05-18T14:07:25.156Z,102740.75
2023-05-18T14:12:29.734Z,102730.06
2023-05-18T14:17:33.052Z,102728.75
2023-05-18T14:22:36.348Z,102715.25
2023-05-18T14:27:40.892Z,102710.03
2023-05-18T14:32:44.349Z,102709.16
2023-05-18T14:37:47.556Z,102713.97
2023-05-18T14:42:53.776Z,102713.78
2023-05-18T14:47:57.423Z,102681.03
2023-05-18T14:53:00.665Z,102685.19
2023-05-18T14:58:06.496Z,102690.19
2023-05-18T15:03:10.109Z,102700.53
2023-05-18T15:08:14.469Z,102693.22
2023-05-18T15:13:19.042Z,102685.31
2023-05-18T15:18:22.164Z,102688.50
2023-05-18T15:23:26.327Z,102675.84
2023-05-18T15:28:31.075Z,102684.34
2023-05-18T15:33:36.083Z,102667.28
2023-05-18T15:38:39.579Z,102663.59
2023-05-18T15:43:45.408Z,102667.34
2023-05-18T15:48:48.545Z,102665.84
2023-05-18T15:53:51.587Z,102653.84
2023-05-18T15:59:01.742Z,102649.78
2023-05-18T16:04:05.012Z,102650.75
2023-05-18T16:09:08.393Z,102656.47
2023-05-18T16:14:13.147Z,102656.00
2023-05-18T16:19:18.051Z,102650.22
2023-05-18T16:24:21.211Z,102633.91
2023-05-18T16:29:25.744Z,102648.47
2023-05-18T16:34:28.864Z,102648.56
2023-05-18T16:39:31.899Z,102640.59
2023-05-18T16:44:36.932Z,102634.38
2023-05-18T16:49:40.294Z,102634.38
2023-05-18T16:54:43.458Z,102633.13
2023-05-18T16:59:47.995Z,102625.13
2023-05-18T17:04:51.539Z,102624.19
2023-05-18T17:09:54.820Z,102635.56
2023-05-18T17:14:59.579Z,102639.09
2023-05-18T17:20:02.741Z,102633.94
2023-05-18T17:25:06.231Z,102635.97
2023-05-18T17:30:11.887Z,102627.66
2023-05-18T17:35:15.241Z,102635.69
2023-05-18T17:40:24.878Z,102633.72
2023-05-18T17:45:29.563Z,102642.03
2023-05-18T17:50:34.780Z,102642.78
2023-05-18T17:55:37.976Z,102637.44
2023-05-18T18:00:42.443Z,102629.34
2023-05-18T18:05:45.574Z,102644.44
2023-05-18T18:10:48.615Z,102641.41
2023-05-18T18:15:53.149Z,102626.88
2023-05-18T18:20:56.527Z,102644.03
2023-05-18T18:26:00.196Z,102647.38
2023-05-18T18:31:04.910Z,102644.75
2023-05-18T18:36:08.830Z,102634.66
2023-05-18T18:41:13.490Z,102651.16
2023-05-18T18:46:18.229Z,102657.13
2023-05-18T18:51:21.364Z,102658.00
2023-05-18T18:56:27.314Z,102662.63
2023-05-18T19:01:31.843Z,102652.03
2023-05-18T19:06:36.764Z,102660.41
2023-05-18T19:11:39.906Z,102667.56
2023-05-18T19:16:44.505Z,102670.31
2023-05-18T19:21:47.773Z,102668.72
2023-05-18T19:26:51.160Z,102686.78
2023-05-18T19:31:57.642Z,102685.84
2023-05-18T19:37:00.804Z,102687.31
2023-05-18T19:42:04.143Z,102684.63
2023-05-18T19:47:08.794Z,102699.75
2023-05-18T19:52:11.883Z,102693.81
2023-05-18T19:57:15.114Z,102691.31
2023-05-18T20:02:19.853Z,102702.63
2023-05-18T20:07:24.084Z,102703.13
2023-05-18T20:12:28.418Z,102694.88
2023-05-18T20:17:33.190Z,102686.28
2023-05-18T20:22:36.417Z,102705.06
2023-05-18T20:27:39.600Z,102703.72
2023-05-18T20:32:44.104Z,102705.31
2023-05-18T20:37:47.361Z,102722.88
2023-05-18T20:42:54.391Z,102717.97
2023-05-18T20:48:00.446Z,102723.19
2023-05-18T20:53:03.736Z,102725.25
2023-05-18T20:58:07.269Z,102724.59
2023-05-18T21:03:14.281Z,102733.75
2023-05-18T21:08:17.588Z,102736.78
2023-05-18T21:13:20.734Z,102728.72
2023-05-18T21:18:25.374Z,102736.78
2023-05-18T21:23:29.685Z,102729.69
2023-05-18T21:28:32.799Z,102743.25
2023-05-18T21:33:37.271Z,102738.47
2023-05-18T21:38:40.476Z,102733.66
2023-05-18T21:43:43.620Z,102736.56
2023-05-18T21:48:49.417Z,102733.22
2023-05-18T21:53:52.799Z,102738.78
2023-05-18T21:58:56.928Z,102746.75
2023-05-18T22:04:01.832Z,102718.00
2023-05-18T22:09:06.131Z,102749.28
2023-05-18T22:14:09.319Z,102742.75
2023-05-18T22:19:13.950Z,102746.78
2023-05-18T22:24:17.109Z,102750.34
2023-05-18T22:29:20.416Z,102752.78
2023-05-18T22:34:24.868Z,102755.94
2023-05-18T22:39:27.825Z,102757.38
2023-05-18T22:44:31.309Z,102757.09
2023-05-18T22:49:36.099Z,102743.78
2023-05-18T22:54:39.288Z,102757.06
2023-05-18T22:59:42.483Z,102744.09
2023-05-18T23:04:47.227Z,102761.44
2023-05-18T23:09:52.270Z,102750.19
2023-05-18T23:14:55.805Z,102743.75
2023-05-18T23:20:07.423Z,102754.06
2023-05-18T23:25:11.278Z,102746.09
2023-05-18T23:30:14.699Z,102720.72
2023-05-18T23:35:20.152Z,102755.56
2023-05-18T23:40:23.617Z,102748.03
2023-05-18T23:45:27.233Z,102747.72
2023-05-18T23:50:32.926Z,102745.63
2023-05-18T23:55:37.635Z,102750.53
